Time;durP1;ratioP1;P1;durP2;ratioP2;P2;SDS_P1;SDS_P2;PMS_P1;PMS_P2;Temp;Humidity;BMP_temperature;BMP_pressure;BME280_temperature;BME280_humidity;BME280_pressure;Samples;Min_cycle;Max_cycle;Signal;HPM_P1;HPM_P2
2022/05/18 03:01:29;;;;;;;2.45;2.25;;;26.60;48.10;;;;;;5705365;23;45854;-64
2022/05/18 03:03:55;;;;;;;2.65;2.22;;;26.60;48.10;;;;;;4971635;28;45007;-59
2022/05/18 03:06:22;;;;;;;2.00;1.80;;;26.60;48.20;;;;;;4968296;28;45379;-61
2022/05/18 03:08:47;;;;;;;2.33;2.13;;;26.60;48.10;;;;;;4973361;28;45253;-62
2022/05/18 03:11:13;;;;;;;2.25;2.00;;;26.60;48.10;;;;;;4963596;28;47144;-58
2022/05/18 03:13:39;;;;;;;2.20;2.00;;;26.60;48.10;;;;;;4955177;28;44765;-64
2022/05/18 03:16:05;;;;;;;2.30;2.10;;;26.60;48.10;;;;;;4954883;28;45352;-58
2022/05/18 03:18:31;;;;;;;2.10;1.90;;;26.60;48.00;;;;;;4951696;28;45446;-59
2022/05/18 03:23:41;;;;;;;2.53;2.33;;;26.60;48.10;;;;;;4951968;28;44713;-61
2022/05/18 03:26:09;;;;;;;2.67;2.10;;;26.50;48.00;;;;;;4951581;28;44748;-58
2022/05/18 03:28:35;;;;;;;2.35;2.05;;;26.50;48.10;;;;;;4954296;28;44821;-59
2022/05/18 03:31:01;;;;;;;2.53;2.33;;;26.50;48.10;;;;;;4951847;28;46405;-58
2022/05/18 03:33:27;;;;;;;2.33;2.05;;;26.50;48.10;;;;;;4953943;28;44636;-59
2022/05/18 03:35:53;;;;;;;2.85;2.55;;;26.50;48.10;;;;;;4956979;28;45493;-62
2022/05/18 03:38:18;;;;;;;2.50;2.00;;;26.50;48.70;;;;;;4956661;28;45072;-61
2022/05/18 03:40:44;;;;;;;2.20;2.00;;;26.50;48.10;;;;;;4952144;28;45662;-59
2022/05/18 03:43:09;;;;;;;2.05;1.88;;;26.50;48.10;;;;;;4947990;28;45266;-60
2022/05/18 03:45:35;;;;;;;2.42;2.20;;;26.50;48.10;;;;;;4954448;28;45210;-58
2022/05/18 03:48:01;;;;;;;2.47;2.13;;;26.50;48.10;;;;;;4953922;28;45068;-65
2022/05/18 03:50:30;;;;;;;2.03;1.83;;;26.50;48.10;;;;;;4953586;28;46203;-62
2022/05/18 03:52:56;;;;;;;2.13;1.92;;;26.50;48.10;;;;;;4950528;28;45397;-62
2022/05/18 03:55:21;;;;;;;2.17;1.98;;;26.50;48.10;;;;;;4956423;28;45337;-59
2022/05/18 03:57:47;;;;;;;2.15;1.90;;;26.50;48.10;;;;;;4952806;28;45485;-61
2022/05/18 04:00:13;;;;;;;1.83;1.73;;;26.50;48.10;;;;;;4932850;28;46029;-61
2022/05/18 04:02:40;;;;;;;1.98;1.88;;;26.50;48.10;;;;;;4948629;28;45527;-64
2022/05/18 04:05:07;;;;;;;2.10;1.90;;;26.50;48.10;;;;;;4955867;28;44696;-61
2022/05/18 04:07:33;;;;;;;1.90;1.80;;;26.50;48.10;;;;;;4951077;28;45106;-59
2022/05/18 04:09:59;;;;;;;1.83;1.63;;;26.50;48.10;;;;;;4955962;28;46240;-61
2022/05/18 04:12:25;;;;;;;2.30;2.10;;;26.50;48.10;;;;;;4952236;28;45319;-62
2022/05/18 04:14:54;;;;;;;2.28;2.08;;;26.50;48.20;;;;;;4949426;28;45225;-61
2022/05/18 04:17:20;;;;;;;1.95;1.80;;;26.50;48.20;;;;;;4952679;28;45102;-59
2022/05/18 04:19:46;;;;;;;2.42;1.88;;;26.40;48.10;;;;;;4949517;28;46871;-60
2022/05/18 04:22:12;;;;;;;2.03;1.83;;;26.40;48.10;;;;;;4951700;28;45677;-61
2022/05/18 04:24:37;;;;;;;2.20;2.00;;;26.40;48.10;;;;;;4952602;28;45459;-60
2022/05/18 04:27:03;;;;;;;2.55;2.20;;;26.40;48.20;;;;;;4951784;28;45283;-62
2022/05/18 04:29:28;;;;;;;2.15;1.95;;;26.40;48.10;;;;;;4956297;28;46073;-63
2022/05/18 04:31:54;;;;;;;2.30;2.10;;;26.40;48.10;;;;;;4949326;28;45636;-61
2022/05/18 04:34:21;;;;;;;1.90;1.77;;;26.40;48.10;;;;;;4936801;28;44959;-61
2022/05/18 04:36:46;;;;;;;2.25;2.05;;;26.40;48.10;;;;;;4948500;28;45386;-61
2022/05/18 04:39:12;;;;;;;2.40;1.98;;;26.40;48.10;;;;;;4951866;28;46964;-62
2022/05/18 04:41:37;;;;;;;2.10;1.90;;;26.50;48.20;;;;;;4948911;28;45264;-61
2022/05/18 04:44:03;;;;;;;1.90;1.80;;;26.40;48.10;;;;;;4958204;28;45229;-60
2022/05/18 04:46:29;;;;;;;2.25;1.95;;;26.40;48.10;;;;;;4932759;28;45555;-61
2022/05/18 04:48:54;;;;;;;3.60;1.85;;;26.40;48.20;;;;;;4953187;28;46144;-62
2022/05/18 04:51:20;;;;;;;2.15;1.95;;;26.40;48.10;;;;;;4960070;28;45497;-64
2022/05/18 04:53:46;;;;;;;2.30;1.98;;;26.40;48.10;;;;;;4950975;28;44733;-61
2022/05/18 04:56:11;;;;;;;1.90;1.80;;;26.40;48.20;;;;;;4953425;28;45363;-63
2022/05/18 04:58:37;;;;;;;2.30;1.95;;;26.40;48.20;;;;;;4952900;28;46172;-61
2022/05/18 05:01:04;;;;;;;2.40;2.20;;;26.40;48.10;;;;;;4952966;28;45372;-62
2022/05/18 05:03:30;;;;;;;2.03;1.90;;;26.40;48.20;;;;;;4931709;28;44979;-60
2022/05/18 05:05:56;;;;;;;1.92;1.83;;;26.40;48.10;;;;;;4953680;28;46082;-64
2022/05/18 05:08:21;;;;;;;1.83;1.73;;;26.40;48.20;;;;;;4936268;28;45249;-62
2022/05/18 05:10:47;;;;;;;2.15;1.95;;;26.40;48.10;;;;;;4952725;28;44770;-59
2022/05/18 05:13:13;;;;;;;2.15;1.95;;;26.40;48.10;;;;;;4951474;28;45280;-64
2022/05/18 05:15:38;;;;;;;2.05;1.85;;;26.40;48.10;;;;;;4954857;28;45282;-62
2022/05/18 05:18:04;;;;;;;1.92;1.83;;;26.40;48.20;;;;;;4950555;28;46211;-60
2022/05/18 05:20:30;;;;;;;2.58;2.30;;;26.40;48.20;;;;;;4951994;28;45190;-58
2022/05/18 05:22:55;;;;;;;2.65;2.00;;;26.40;48.20;;;;;;4954239;28;45283;-61
2022/05/18 05:25:21;;;;;;;2.20;2.00;;;26.40;48.10;;;;;;4955273;28;45587;-61
2022/05/18 05:27:47;;;;;;;2.40;2.13;;;26.50;48.10;;;;;;4953905;28;46615;-62
2022/05/18 05:30:13;;;;;;;1.85;1.75;;;26.50;48.00;;;;;;4953783;28;45545;-61
2022/05/18 05:32:39;;;;;;;2.20;2.00;;;26.60;48.00;;;;;;4954205;28;45560;-60
2022/05/18 05:35:06;;;;;;;2.40;2.20;;;26.70;47.80;;;;;;4956676;28;44787;-62
2022/05/18 05:37:31;;;;;;;2.13;1.90;;;26.80;48.10;;;;;;4957942;28;46272;-61
2022/05/18 05:39:57;;;;;;;2.20;2.00;;;26.90;47.30;;;;;;4953451;28;45286;-61
2022/05/18 05:42:23;;;;;;;1.75;1.65;;;27.00;47.10;;;;;;4959402;28;45242;-65
2022/05/18 05:44:49;;;;;;;2.35;1.95;;;27.10;46.90;;;;;;4955345;28;44887;-60
2022/05/18 05:47:14;;;;;;;2.40;2.17;;;27.10;46.80;;;;;;4957707;28;45926;-62
2022/05/18 05:49:40;;;;;;;2.42;1.90;;;27.10;46.80;;;;;;4955480;28;45156;-63
2022/05/18 05:52:07;;;;;;;2.72;2.10;;;27.10;46.80;;;;;;4940013;28;45330;-62
2022/05/18 05:54:33;;;;;;;2.90;2.22;;;27.10;46.90;;;;;;4935910;28;45407;-62
2022/05/18 05:57:02;;;;;;;2.03;1.83;;;27.10;46.90;;;;;;4950411;28;45929;-63
2022/05/18 05:59:29;;;;;;;2.10;1.90;;;27.00;47.00;;;;;;4951342;28;45194;-62
2022/05/18 06:01:58;;;;;;;2.00;1.90;;;27.00;47.10;;;;;;4954912;28;44826;-62
2022/05/18 06:04:24;;;;;;;2.30;2.10;;;27.00;47.10;;;;;;4952663;28;45373;-59
2022/05/18 06:06:49;;;;;;;2.10;1.95;;;26.90;47.70;;;;;;4958557;28;46328;-60
2022/05/18 06:09:15;;;;;;;4.30;2.40;;;26.90;47.20;;;;;;4953981;28;45225;-57
2022/05/18 06:11:41;;;;;;;3.33;3.03;;;26.90;47.00;;;;;;4956079;28;45562;-59
2022/05/18 06:14:06;;;;;;;3.40;2.88;;;26.90;46.60;;;;;;4954551;28;44802;-60
2022/05/18 06:16:32;;;;;;;3.30;3.00;;;26.90;46.40;;;;;;4953997;28;46729;-58
2022/05/18 06:18:59;;;;;;;4.18;2.97;;;26.80;46.20;;;;;;4955809;28;45896;-56
2022/05/18 06:21:25;;;;;;;4.80;3.38;;;26.70;46.20;;;;;;4951856;28;45845;-57
2022/05/18 06:23:51;;;;;;;4.63;3.22;;;26.70;46.20;;;;;;4961398;28;45249;-60
2022/05/18 06:26:16;;;;;;;4.05;3.55;;;26.60;46.00;;;;;;4959952;28;46224;-58
2022/05/18 06:28:42;;;;;;;5.00;3.60;;;26.60;45.90;;;;;;4961992;28;45030;-57
2022/05/18 06:31:07;;;;;;;4.15;3.33;;;26.60;45.80;;;;;;4955963;28;45040;-59
2022/05/18 06:33:34;;;;;;;6.07;3.38;;;26.60;45.70;;;;;;4960327;28;45482;-58
2022/05/18 06:36:00;;;;;;;4.72;3.00;;;26.70;45.80;;;;;;4948196;28;46219;-58
2022/05/18 06:38:26;;;;;;;4.00;2.70;;;26.70;45.70;;;;;;4955904;28;46309;-59
2022/05/18 06:43:35;;;;;;;4.03;3.03;;;26.60;45.90;;;;;;4956108;28;45246;-59
2022/05/18 06:46:01;;;;;;;3.53;2.80;;;26.70;46.70;;;;;;4955792;28;46959;-59
2022/05/18 06:48:27;;;;;;;3.08;2.42;;;26.70;46.00;;;;;;4951785;28;45110;-59
2022/05/18 06:50:53;;;;;;;4.22;2.88;;;26.70;46.00;;;;;;4955542;28;45299;-58
2022/05/18 06:53:19;;;;;;;4.15;3.10;;;26.70;46.00;;;;;;4952407;28;44824;-59
2022/05/18 06:55:44;;;;;;;3.60;2.60;;;26.70;46.00;;;;;;4954398;28;46515;-58
2022/05/18 06:58:10;;;;;;;4.38;2.53;;;26.70;46.00;;;;;;4960864;28;45186;-60
2022/05/18 07:00:35;;;;;;;5.22;2.72;;;26.80;46.10;;;;;;4961953;28;45496;-58
2022/05/18 07:03:01;;;;;;;5.03;2.92;;;26.80;46.10;;;;;;4952880;28;44732;-65
2022/05/18 07:05:27;;;;;;;2.88;2.60;;;26.80;46.10;;;;;;4960342;28;46344;-59
2022/05/18 07:07:53;;;;;;;3.50;2.90;;;26.80;46.70;;;;;;4954365;28;45462;-60
2022/05/18 07:10:18;;;;;;;3.00;2.70;;;26.80;46.00;;;;;;4960141;28;45028;-61
2022/05/18 07:12:44;;;;;;;2.63;2.10;;;26.80;46.10;;;;;;4955225;28;45331;-60
2022/05/18 07:15:09;;;;;;;3.40;2.65;;;26.80;46.10;;;;;;4956784;28;45885;-61
2022/05/18 07:17:35;;;;;;;4.22;2.50;;;26.90;46.10;;;;;;4957395;28;45245;-59
2022/05/18 07:20:02;;;;;;;4.28;2.80;;;26.90;46.10;;;;;;4950988;28;45434;-61
2022/05/18 07:22:28;;;;;;;4.60;2.60;;;26.90;46.10;;;;;;4954887;28;44923;-58
2022/05/18 07:24:54;;;;;;;5.75;3.08;;;26.90;46.20;;;;;;4959274;28;46115;-61
2022/05/18 07:27:19;;;;;;;2.90;2.60;;;26.90;46.20;;;;;;4958718;28;45197;-60
2022/05/18 07:29:45;;;;;;;3.72;2.63;;;26.90;46.20;;;;;;4952192;28;45345;-57
2022/05/18 07:32:13;;;;;;;6.07;2.90;;;27.00;46.20;;;;;;4955664;28;45673;-57
2022/05/18 07:34:40;;;;;;;3.92;2.35;;;27.00;46.20;;;;;;4955505;28;46248;-63
2022/05/18 07:37:06;;;;;;;2.78;2.40;;;27.00;46.20;;;;;;4956979;28;44994;-57
2022/05/18 07:39:31;;;;;;;2.50;2.30;;;27.10;46.30;;;;;;4952862;28;45279;-59
2022/05/18 07:41:58;;;;;;;3.58;2.30;;;27.00;46.20;;;;;;4956092;28;45331;-60
2022/05/18 07:44:24;;;;;;;2.70;2.40;;;27.00;46.20;;;;;;4956331;28;46895;-56
2022/05/18 07:46:50;;;;;;;4.70;2.65;;;27.10;46.30;;;;;;4951991;28;45480;-60
2022/05/18 07:49:16;;;;;;;3.90;2.65;;;27.10;46.30;;;;;;4948874;28;45533;-60
2022/05/18 07:51:41;;;;;;;4.00;2.58;;;27.10;46.30;;;;;;4958807;28;45487;-62
2022/05/18 07:54:07;;;;;;;5.25;2.65;;;27.10;46.30;;;;;;4938837;28;45891;-60
2022/05/18 07:56:35;;;;;;;4.30;2.67;;;27.20;46.40;;;;;;4953374;28;44785;-58
2022/05/18 07:59:04;;;;;;;3.17;2.35;;;27.20;46.30;;;;;;4958016;28;45443;-62
2022/05/18 08:01:30;;;;;;;2.95;2.63;;;27.20;46.20;;;;;;4936326;28;45677;-61
2022/05/18 08:03:55;;;;;;;3.55;2.65;;;27.20;46.30;;;;;;4961760;28;46526;-60
2022/05/18 08:06:21;;;;;;;3.20;2.53;;;27.30;46.30;;;;;;4956764;28;45245;-59
2022/05/18 08:08:47;;;;;;;2.92;2.13;;;27.30;46.30;;;;;;4950957;28;45253;-59
2022/05/18 08:16:40;;;;;;;5.30;2.80;;;27.40;46.30;;;;;;4959269;28;44582;-61
2022/05/18 08:19:10;;;;;;;3.15;2.83;;;27.40;46.30;;;;;;4959484;28;45070;-60
2022/05/18 08:21:37;;;;;;;3.00;2.67;;;27.40;46.20;;;;;;4938147;28;45599;-61
2022/05/18 08:24:04;;;;;;;6.40;3.03;;;27.50;46.30;;;;;;4952162;28;45936;-59
2022/05/18 08:26:31;;;;;;;6.53;2.50;;;27.50;46.20;;;;;;4947816;28;44917;-60
2022/05/18 08:28:57;;;;;;;3.08;2.78;;;27.50;46.20;;;;;;4954655;28;45233;-58
2022/05/18 08:31:23;;;;;;;2.75;2.40;;;27.50;46.20;;;;;;4957967;28;45532;-59
2022/05/18 08:33:49;;;;;;;5.03;2.58;;;27.60;46.30;;;;;;4956344;28;46123;-59
2022/05/18 08:36:16;;;;;;;4.88;2.92;;;27.60;46.20;;;;;;4950505;28;45616;-59
2022/05/18 08:38:42;;;;;;;2.90;2.60;;;27.60;46.20;;;;;;4952616;28;45198;-57
2022/05/18 08:41:19;;;;;;;2.42;2.22;;;27.70;46.30;;;;;;4951546;28;45399;-62
2022/05/18 08:43:50;;;;;;;3.33;2.63;;;27.60;46.20;;;;;;4938678;28;46275;-57
2022/05/18 08:46:22;;;;;;;3.35;2.60;;;27.70;46.20;;;;;;4941683;28;45478;-58
2022/05/18 08:49:03;;;;;;;3.15;2.50;;;27.70;46.30;;;;;;4931054;28;45185;-58
2022/05/18 08:51:43;;;;;;;3.22;2.65;;;27.80;46.30;;;;;;4931622;28;44990;-58
2022/05/18 08:54:20;;;;;;;2.80;2.58;;;27.80;46.30;;;;;;4937448;28;46071;-58
2022/05/18 08:56:46;;;;;;;2.72;2.50;;;27.80;46.20;;;;;;4934826;28;45341;-59
2022/05/18 08:59:24;;;;;;;2.70;2.50;;;27.80;46.10;;;;;;4927185;28;45261;-59
2022/05/18 09:01:51;;;;;;;3.65;2.53;;;27.90;46.10;;;;;;4920486;28;45427;-59
2022/05/18 09:04:50;;;;;;;3.90;2.92;;;27.90;46.20;;;;;;4906009;28;46077;-55
2022/05/18 09:07:18;;;;;;;3.85;2.40;;;27.90;46.20;;;;;;4941594;28;45320;-58
2022/05/18 09:12:37;;;;;;;2.70;2.30;;;27.90;46.10;;;;;;4951502;28;45570;-58
2022/05/18 09:15:04;;;;;;;2.75;2.53;;;27.90;46.10;;;;;;4942570;28;46083;-59
2022/05/18 09:17:43;;;;;;;2.60;2.40;;;27.90;46.10;;;;;;4953705;28;45258;-60
2022/05/18 09:20:21;;;;;;;2.60;2.33;;;28.00;46.10;;;;;;4957568;28;45585;-61
2022/05/18 09:22:52;;;;;;;4.68;2.58;;;28.00;46.10;;;;;;4956362;28;45456;-60
2022/05/18 09:25:50;;;;;;;3.15;2.85;;;28.00;46.10;;;;;;4957453;28;45220;-61
2022/05/18 09:28:23;;;;;;;3.15;2.38;;;28.00;46.00;;;;;;4922981;28;45304;-61
2022/05/18 09:30:52;;;;;;;;;;;28.00;45.90;;;;;;4948434;28;45143;-64
2022/05/18 09:33:45;;;;;;;3.05;2.40;;;28.00;45.90;;;;;;4958844;28;45326;-56
2022/05/18 09:36:11;;;;;;;;;;;28.10;45.90;;;;;;4937309;28;46096;-58
2022/05/18 09:39:19;;;;;;;2.92;2.38;;;28.00;45.90;;;;;;4957428;28;45307;-65
2022/05/18 09:41:49;;;;;;;2.85;2.35;;;28.10;45.90;;;;;;4934682;28;45454;-61
2022/05/18 09:44:26;;;;;;;3.50;2.70;;;28.10;46.00;;;;;;4954247;28;45559;-58
2022/05/18 09:46:52;;;;;;;2.85;2.20;;;28.10;45.80;;;;;;4951185;28;45994;-63
2022/05/18 09:49:46;;;;;;;3.38;2.70;;;28.10;45.90;;;;;;4933231;28;45506;-64
2022/05/18 09:52:11;;;;;;;2.88;2.67;;;28.10;45.80;;;;;;4954516;28;45779;-61
2022/05/18 09:54:37;;;;;;;2.60;2.40;;;28.10;45.90;;;;;;4940135;28;44905;-56
2022/05/18 09:57:25;;;;;;;2.95;2.67;;;28.10;45.90;;;;;;4956924;28;46284;-58
2022/05/18 09:59:56;;;;;;;3.53;3.00;;;28.10;45.90;;;;;;4938473;28;45051;-60
2022/05/18 10:07:57;;;;;;;2.58;2.33;;;28.20;45.90;;;;;;4952568;28;45285;-59
2022/05/18 10:10:31;;;;;;;2.92;2.70;;;28.20;45.80;;;;;;4958866;28;45565;-59
2022/05/18 10:12:59;;;;;;;3.38;2.50;;;28.20;45.80;;;;;;4924361;28;45507;-61
2022/05/18 10:15:25;;;;;;;3.33;2.65;;;28.20;45.80;;;;;;4951481;28;45776;-60
2022/05/18 10:17:53;;;;;;;2.70;2.42;;;28.20;45.80;;;;;;4953449;28;46968;-61
2022/05/18 10:20:30;;;;;;;3.00;2.45;;;28.20;45.70;;;;;;4934830;28;45071;-61
2022/05/18 10:22:56;;;;;;;2.83;2.55;;;28.30;45.70;;;;;;4941700;28;45322;-62
2022/05/18 10:25:32;;;;;;;3.00;2.60;;;28.30;45.70;;;;;;4936642;28;45135;-56
2022/05/18 10:27:58;;;;;;;2.80;2.58;;;28.20;45.70;;;;;;4939972;28;46093;-61
2022/05/18 10:30:36;;;;;;;2.80;2.53;;;28.30;45.70;;;;;;4941227;28;45046;-60
2022/05/18 10:33:18;;;;;;;3.08;2.70;;;28.30;45.70;;;;;;4955377;28;45512;-64
2022/05/18 10:35:48;;;;;;;2.42;2.22;;;28.30;45.60;;;;;;4954606;28;44917;-61
2022/05/18 10:38:25;;;;;;;3.38;2.65;;;28.30;45.80;;;;;;4959600;28;46109;-61
2022/05/18 10:41:14;;;;;;;2.72;2.22;;;28.30;45.70;;;;;;4955812;28;45243;-61
2022/05/18 10:43:54;;;;;;;3.20;2.63;;;28.30;45.50;;;;;;4953673;28;45488;-60
2022/05/18 10:46:31;;;;;;;2.47;2.17;;;28.30;45.70;;;;;;4962353;28;45091;-58
2022/05/18 10:49:07;;;;;;;3.55;2.65;;;28.30;45.60;;;;;;4944376;28;46730;-59
2022/05/18 10:51:39;;;;;;;2.45;2.25;;;28.30;45.60;;;;;;4929551;28;45410;-62
2022/05/18 10:54:25;;;;;;;2.53;2.33;;;28.30;45.60;;;;;;4952687;28;45290;-60
2022/05/18 10:56:52;;;;;;;2.38;2.17;;;28.30;45.50;;;;;;4951280;28;45365;-60
2022/05/18 10:59:44;;;;;;;3.08;2.53;;;28.30;45.70;;;;;;4957654;28;46296;-60
2022/05/18 11:02:48;;;;;;;5.15;2.60;;;28.30;45.50;;;;;;4922202;28;45340;-62
2022/05/18 11:05:28;;;;;;;2.97;2.40;;;28.40;45.60;;;;;;4913176;28;45339;-59
2022/05/18 11:07:53;;;;;;;3.08;2.50;;;28.40;45.70;;;;;;4935973;28;44927;-60
2022/05/18 11:10:19;;;;;;;3.10;2.83;;;28.40;45.70;;;;;;4939748;28;45868;-58
2022/05/18 11:12:56;;;;;;;2.50;2.30;;;28.40;45.70;;;;;;4958876;28;45495;-61
2022/05/18 11:15:38;;;;;;;5.85;2.72;;;28.40;45.60;;;;;;4943173;28;45502;-61
2022/05/18 11:18:16;;;;;;;2.70;2.50;;;28.40;45.60;;;;;;4938720;28;45553;-60
2022/05/18 11:21:18;;;;;;;2.88;2.58;;;28.50;45.60;;;;;;4950202;28;46206;-58
2022/05/18 11:24:16;;;;;;;2.83;2.45;;;28.50;45.60;;;;;;4933178;28;45482;-59
2022/05/18 11:27:06;;;;;;;2.67;2.47;;;28.50;45.60;;;;;;4940328;28;45081;-60
2022/05/18 11:29:46;;;;;;;4.45;2.85;;;28.50;45.60;;;;;;4934217;28;45643;-59
2022/05/18 11:32:23;;;;;;;2.90;2.58;;;28.50;45.60;;;;;;4943694;28;47141;-59
2022/05/18 11:35:11;;;;;;;2.50;2.30;;;28.50;45.60;;;;;;4956273;28;44835;-59
2022/05/18 11:37:55;;;;;;;2.90;2.70;;;28.50;45.60;;;;;;4957996;28;45612;-61
2022/05/18 11:40:49;;;;;;;3.00;2.58;;;28.50;45.50;;;;;;4935927;28;44989;-62
2022/05/18 11:43:36;;;;;;;2.97;2.50;;;28.60;45.60;;;;;;4957652;28;46003;-61
2022/05/18 11:46:08;;;;;;;2.42;2.05;;;28.60;45.70;;;;;;4953024;28;45389;-59
2022/05/18 11:49:11;;;;;;;4.35;2.33;;;28.60;45.70;;;;;;4940629;28;44887;-59
2022/05/18 11:51:55;;;;;;;2.67;2.22;;;28.60;45.70;;;;;;4953327;28;45373;-57
2022/05/18 11:54:27;;;;;;;3.00;2.60;;;28.60;45.80;;;;;;4952165;28;45610;-60
2022/05/18 11:57:17;;;;;;;2.58;2.38;;;28.70;45.90;;;;;;4947510;28;45657;-61
2022/05/18 11:59:55;;;;;;;3.08;2.75;;;28.70;45.80;;;;;;4955397;28;45459;-60
2022/05/18 12:03:03;;;;;;;2.80;2.47;;;28.70;45.80;;;;;;4935593;28;45341;-57
2022/05/18 12:05:50;;;;;;;4.65;2.55;;;28.70;45.80;;;;;;4937537;28;46229;-60
2022/05/18 12:08:39;;;;;;;4.03;2.42;;;28.70;45.80;;;;;;4952682;28;45431;-59
2022/05/18 12:11:35;;;;;;;4.90;2.60;;;28.80;45.80;;;;;;4933943;28;45360;-58
2022/05/18 12:14:22;;;;;;;3.67;2.40;;;28.70;45.70;;;;;;4953310;28;45338;-60
2022/05/18 12:17:01;;;;;;;2.70;2.45;;;28.80;45.80;;;;;;4941241;28;45937;-60
2022/05/18 12:19:36;;;;;;;2.83;2.42;;;28.80;45.80;;;;;;4917721;28;46794;-59
2022/05/18 12:22:08;;;;;;;3.13;2.80;;;28.80;45.80;;;;;;4934335;28;46847;-60
2022/05/18 12:24:35;;;;;;;2.58;2.38;;;28.80;45.70;;;;;;4934843;28;45297;-57
2022/05/18 12:27:01;;;;;;;2.85;2.55;;;28.90;45.80;;;;;;4931050;28;47023;-56
2022/05/18 12:29:26;;;;;;;3.30;2.55;;;28.80;45.80;;;;;;4943929;28;44686;-61
2022/05/18 12:31:53;;;;;;;2.92;2.63;;;28.90;45.90;;;;;;4930768;28;45766;-61
2022/05/18 12:34:25;;;;;;;2.95;2.70;;;28.90;45.90;;;;;;4915882;28;45988;-60
2022/05/18 12:37:01;;;;;;;2.72;2.53;;;28.90;45.90;;;;;;4948539;28;46142;-60
2022/05/18 12:39:41;;;;;;;2.65;2.45;;;28.90;45.80;;;;;;4951757;28;45842;-57
2022/05/18 12:42:09;;;;;;;2.70;2.50;;;28.90;45.80;;;;;;4949709;28;45439;-59
2022/05/18 12:44:40;;;;;;;2.80;2.50;;;28.90;45.90;;;;;;4938377;28;45547;-61
2022/05/18 12:47:24;;;;;;;3.00;2.70;;;28.90;45.80;;;;;;4935957;28;45651;-62
2022/05/18 12:49:58;;;;;;;2.50;2.30;;;29.00;45.90;;;;;;4954465;28;45292;-60
2022/05/18 12:52:50;;;;;;;3.33;2.65;;;29.00;45.90;;;;;;4925373;28;45359;-61
2022/05/18 12:55:33;;;;;;;2.90;2.60;;;29.00;45.90;;;;;;4953625;28;45388;-59
2022/05/18 12:58:08;;;;;;;;;;;29.00;45.90;;;;;;4937210;28;46364;-60
2022/05/18 13:00:40;;;;;;;3.33;2.35;;;29.00;45.90;;;;;;4954901;28;45018;-57
2022/05/18 13:03:08;;;;;;;2.45;2.13;;;29.00;46.00;;;;;;4953308;28;46039;-57
2022/05/18 13:05:36;;;;;;;3.00;2.72;;;29.00;46.00;;;;;;4952671;28;45977;-57
2022/05/18 13:08:17;;;;;;;2.95;2.30;;;29.10;46.10;;;;;;4953714;28;45363;-59
2022/05/18 13:11:14;;;;;;;2.50;2.15;;;29.00;46.00;;;;;;4937208;28;45341;-58
2022/05/18 13:14:05;;;;;;;2.70;2.47;;;29.10;46.10;;;;;;4954170;28;45519;-60
2022/05/18 13:16:37;;;;;;;2.60;2.40;;;29.10;46.20;;;;;;4918507;28;45960;-59
2022/05/18 13:19:03;;;;;;;2.47;2.28;;;29.10;46.10;;;;;;4953868;28;46202;-60
2022/05/18 13:21:29;;;;;;;3.53;2.42;;;29.10;46.20;;;;;;4953872;28;45329;-59
2022/05/18 13:24:03;;;;;;;2.50;2.30;;;29.10;46.20;;;;;;4922344;28;45369;-60
2022/05/18 13:26:46;;;;;;;2.42;2.22;;;29.10;46.20;;;;;;4919540;28;44774;-59
2022/05/18 13:29:21;;;;;;;3.67;2.58;;;29.10;46.20;;;;;;4953601;28;47457;-58
2022/05/18 13:31:55;;;;;;;2.40;2.17;;;29.10;46.20;;;;;;4953726;28;45418;-58
2022/05/18 13:34:23;;;;;;;3.40;2.67;;;29.10;46.20;;;;;;4952177;28;46290;-60
2022/05/18 13:36:54;;;;;;;2.72;2.45;;;29.10;46.30;;;;;;4948752;28;46377;-59
2022/05/18 13:39:29;;;;;;;2.90;2.60;;;29.10;46.30;;;;;;4952231;28;46046;-58
2022/05/18 13:41:55;;;;;;;2.80;2.60;;;29.10;46.40;;;;;;4952971;28;45518;-57
2022/05/18 13:44:28;;;;;;;3.60;2.75;;;29.10;46.40;;;;;;4955081;28;45693;-58
2022/05/18 13:46:55;;;;;;;3.88;2.47;;;29.10;46.40;;;;;;4953699;28;45312;-59
2022/05/18 13:49:21;;;;;;;2.42;2.22;;;29.10;46.50;;;;;;4919344;28;46243;-59
2022/05/18 13:51:51;;;;;;;2.72;2.38;;;29.10;46.50;;;;;;4919678;28;45408;-56
2022/05/18 13:54:20;;;;;;;3.05;2.70;;;29.10;46.60;;;;;;4921169;28;46192;-57
2022/05/18 13:56:51;;;;;;;2.92;2.30;;;29.10;46.60;;;;;;4937629;28;46614;-58
2022/05/18 13:59:24;;;;;;;2.70;2.50;;;29.10;46.60;;;;;;4935464;28;46114;-60
2022/05/18 14:01:50;;;;;;;2.55;2.33;;;29.10;46.60;;;;;;4933943;28;45514;-56
2022/05/18 14:04:21;;;;;;;3.67;2.50;;;29.10;46.70;;;;;;4953151;28;45563;-55
2022/05/18 14:06:48;;;;;;;4.35;3.10;;;29.10;46.70;;;;;;4952206;28;45353;-58
2022/05/18 14:09:14;;;;;;;3.33;2.70;;;29.20;46.70;;;;;;4935172;28;46112;-57
2022/05/18 14:11:40;;;;;;;3.25;2.85;;;29.10;46.60;;;;;;4934950;28;45453;-58
2022/05/18 14:14:05;;;;;;;2.72;2.53;;;29.20;46.70;;;;;;4952786;28;45265;-59
2022/05/18 14:16:32;;;;;;;2.70;2.28;;;29.20;46.60;;;;;;4949373;28;45615;-60
2022/05/18 14:18:58;;;;;;;2.80;2.55;;;29.20;46.70;;;;;;4933902;28;45911;-57
2022/05/18 14:21:23;;;;;;;3.75;2.65;;;29.20;46.70;;;;;;4935225;28;45766;-59
2022/05/18 14:24:04;;;;;;;3.03;2.72;;;29.20;46.60;;;;;;4936598;28;45214;-56
2022/05/18 14:26:43;;;;;;;2.92;2.70;;;29.20;46.60;;;;;;4953230;28;45209;-56
2022/05/18 14:29:10;;;;;;;2.80;2.60;;;29.30;46.70;;;;;;4935441;28;46901;-58
2022/05/18 14:31:44;;;;;;;2.50;2.30;;;29.30;46.60;;;;;;4934834;28;45575;-59
2022/05/18 14:34:10;;;;;;;2.70;2.47;;;29.30;46.60;;;;;;4920496;28;45688;-62
2022/05/18 14:36:36;;;;;;;2.70;2.50;;;29.30;47.20;;;;;;4935991;28;45349;-61
2022/05/18 14:39:07;;;;;;;2.83;2.38;;;29.30;46.60;;;;;;4935184;28;45899;-60
2022/05/18 14:41:38;;;;;;;2.63;2.40;;;29.30;46.50;;;;;;4934781;28;45667;-59
2022/05/18 14:44:04;;;;;;;4.03;2.58;;;29.30;46.50;;;;;;4936059;28;45747;-60
2022/05/18 14:46:32;;;;;;;2.78;2.50;;;29.30;46.60;;;;;;4934225;28;45519;-60
2022/05/18 14:49:17;;;;;;;2.55;2.33;;;29.30;46.60;;;;;;4952019;28;46505;-60
2022/05/18 14:51:44;;;;;;;3.08;2.78;;;29.30;46.60;;;;;;4953306;28;45305;-60
2022/05/18 14:54:18;;;;;;;2.53;2.33;;;29.20;46.50;;;;;;4951814;28;45362;-61
2022/05/18 14:56:47;;;;;;;3.00;2.40;;;29.20;46.50;;;;;;4949772;28;45762;-59
2022/05/18 14:59:13;;;;;;;2.60;2.33;;;29.20;46.50;;;;;;4926423;28;47064;-59
2022/05/18 15:01:47;;;;;;;2.25;2.08;;;29.20;46.60;;;;;;4926481;28;44958;-61
2022/05/18 15:04:26;;;;;;;2.58;2.15;;;29.20;46.50;;;;;;4919274;28;45679;-59
2022/05/18 15:06:53;;;;;;;2.40;2.20;;;29.20;46.50;;;;;;4915620;28;46028;-61
2022/05/18 15:09:23;;;;;;;2.58;2.38;;;29.20;46.40;;;;;;4932356;28;45140;-61
2022/05/18 15:11:54;;;;;;;3.10;2.50;;;29.20;46.30;;;;;;4932198;28;45928;-61
2022/05/18 15:14:39;;;;;;;2.97;2.38;;;29.20;46.30;;;;;;4931539;28;45730;-62
2022/05/18 15:17:19;;;;;;;2.42;2.13;;;29.20;46.20;;;;;;4934274;28;45464;-61
2022/05/18 15:19:56;;;;;;;2.50;2.30;;;29.20;46.20;;;;;;4933571;28;46039;-61
2022/05/18 15:22:24;;;;;;;2.58;2.38;;;29.20;46.20;;;;;;4932106;28;44677;-60
2022/05/18 15:24:51;;;;;;;2.42;2.22;;;29.20;46.20;;;;;;4924618;28;45573;-59
2022/05/18 15:27:28;;;;;;;2.70;2.50;;;29.20;46.20;;;;;;4924866;28;46173;-63
2022/05/18 15:29:58;;;;;;;3.60;2.40;;;29.20;46.00;;;;;;4927490;28;46075;-61
2022/05/18 15:32:26;;;;;;;2.72;1.92;;;29.20;46.10;;;;;;4924577;28;45313;-61
2022/05/18 15:34:58;;;;;;;3.25;2.33;;;29.20;46.10;;;;;;4898748;28;45447;-63
2022/05/18 15:37:24;;;;;;;3.27;2.60;;;29.20;46.00;;;;;;4908609;28;45324;-59
2022/05/18 15:39:49;;;;;;;3.67;2.35;;;29.20;46.10;;;;;;4907684;28;45941;-65
2022/05/18 15:42:17;;;;;;;2.90;2.60;;;29.20;46.00;;;;;;4924175;28;45340;-61
2022/05/18 15:44:42;;;;;;;2.75;2.55;;;29.20;46.00;;;;;;4908120;28;45745;-62
2022/05/18 15:47:13;;;;;;;2.63;2.42;;;29.20;45.90;;;;;;4924439;28;45583;-61
2022/05/18 15:49:40;;;;;;;2.88;2.60;;;29.20;45.90;;;;;;4907882;28;46109;-65
2022/05/18 15:52:11;;;;;;;2.90;2.60;;;29.20;45.90;;;;;;4891665;28;45647;-63
2022/05/18 15:54:44;;;;;;;2.90;2.70;;;29.20;45.80;;;;;;4924084;28;45391;-60
2022/05/18 15:57:09;;;;;;;2.08;1.90;;;29.20;45.80;;;;;;4920567;28;45736;-61
2022/05/18 15:59:35;;;;;;;4.22;2.42;;;29.20;45.80;;;;;;4925828;28;46148;-61
2022/05/18 16:02:01;;;;;;;2.72;2.50;;;29.20;45.80;;;;;;4915628;28;45373;-61
2022/05/18 16:04:26;;;;;;;2.70;2.50;;;29.20;45.80;;;;;;4945252;28;45340;-63
2022/05/18 16:06:52;;;;;;;3.28;2.88;;;29.20;45.80;;;;;;4942198;28;45708;-61
2022/05/18 16:09:20;;;;;;;2.50;2.30;;;29.20;45.70;;;;;;4927218;28;45965;-61
2022/05/18 16:11:46;;;;;;;2.50;2.30;;;29.10;45.70;;;;;;4941441;28;45024;-62
2022/05/18 16:14:12;;;;;;;3.38;2.70;;;29.20;45.70;;;;;;4907236;28;45115;-59
2022/05/18 16:16:37;;;;;;;3.03;2.58;;;29.20;45.70;;;;;;4945151;28;45669;-60
2022/05/18 16:19:03;;;;;;;3.03;2.72;;;29.20;45.70;;;;;;4945589;28;46973;-63
2022/05/18 16:21:30;;;;;;;2.85;2.55;;;29.20;45.60;;;;;;4942671;28;45693;-63
2022/05/18 16:23:56;;;;;;;3.25;2.50;;;29.20;45.60;;;;;;4928009;28;45724;-59
2022/05/18 16:26:29;;;;;;;3.60;2.67;;;29.20;45.50;;;;;;4911556;28;45531;-62